Time;durP1;ratioP1;P1;durP2;ratioP2;P2;SDS_P1;SDS_P2;PMS_P1;PMS_P2;Temp;Humidity;BMP_temperature;BMP_pressure;BME280_temperature;BME280_humidity;BME280_pressure;Samples;Min_cycle;Max_cycle;Signal;HPM_P1;HPM_P2
2021/05/26 00:00:08;;;;;;;;;2.00;2.00;;;;;28.43;66.25;98534.13;4918524;29;8847;-71
2021/05/26 00:02:37;;;;;;;;;3.00;3.00;;;;;28.47;66.39;98541.09;4918479;29;8890;-71
2021/05/26 00:05:07;;;;;;;;;3.50;3.50;;;;;28.50;66.48;98544.97;4918363;29;8890;-71
2021/05/26 00:07:36;;;;;;;;;3.75;3.75;;;;;28.50;65.75;98539.53;4918401;29;8893;-71
2021/05/26 00:10:06;;;;;;;;;3.00;3.00;;;;;28.58;65.82;98557.38;4918392;29;8863;-71
2021/05/26 00:12:35;;;;;;;;;4.00;4.00;;;;;28.61;66.14;98564.69;4918537;29;8855;-71
2021/05/26 00:15:06;;;;;;;;;5.00;5.00;;;;;28.64;66.68;98565.84;4918302;29;8858;-71
2021/05/26 00:17:34;;;;;;;;;2.75;2.75;;;;;28.67;67.02;98570.50;4916932;29;8875;-71
2021/05/26 00:20:04;;;;;;;;;6.25;6.25;;;;;28.71;66.80;98582.91;4918235;29;8861;-71
2021/05/26 00:22:33;;;;;;;;;4.50;4.50;;;;;28.73;66.62;98582.50;4918122;29;8935;-71
2021/05/26 00:25:04;;;;;;;;;4.00;4.00;;;;;28.73;66.55;98590.66;4918046;29;8859;-71
2021/05/26 00:27:33;;;;;;;;;4.00;4.00;;;;;28.81;66.02;98592.19;4917186;29;8871;-72
2021/05/26 00:30:03;;;;;;;;;3.25;3.25;;;;;28.87;65.83;98593.34;4918123;29;8865;-71
2021/05/26 00:32:32;;;;;;;;;3.50;3.50;;;;;28.90;65.58;98592.56;4918010;29;8863;-71
2021/05/26 00:35:01;;;;;;;;;4.00;4.00;;;;;28.88;65.34;98584.03;4917955;29;8877;-71
2021/05/26 00:37:30;;;;;;;;;4.00;4.00;;;;;29.00;65.33;98597.19;4917913;29;8850;-71
2021/05/26 00:39:59;;;;;;;;;5.00;5.00;;;;;29.05;65.32;98602.22;4917839;29;8858;-71
2021/05/26 00:42:30;;;;;;;;;3.50;3.50;;;;;29.11;65.23;98613.47;4917797;29;8888;-71
2021/05/26 00:44:59;;;;;;;;;4.00;4.00;;;;;29.16;64.98;98610.34;4917639;29;8882;-71
2021/05/26 00:47:45;;;;;;;;;4.25;4.25;;;;;29.21;64.72;98609.94;4918230;29;8866;-71
2021/05/26 00:50:27;;;;;;;;;3.00;3.00;;;;;29.25;64.98;98615.34;4917990;29;8867;-71
2021/05/26 00:53:01;;;;;;;;;4.00;4.00;;;;;29.26;64.74;98608.75;4917687;29;8863;-71
2021/05/26 00:55:30;;;;;;;;;4.00;4.00;;;;;29.33;64.48;98614.94;4917572;29;8839;-71
2021/05/26 00:58:00;;;;;;;;;3.50;3.50;;;;;29.36;64.07;98606.00;4917546;29;8977;-75
2021/05/26 01:00:30;;;;;;;;;4.75;4.75;;;;;29.41;64.05;98615.66;4917510;29;8985;-73
2021/05/26 01:03:01;;;;;;;;;4.00;4.00;;;;;29.40;63.78;98611.41;4917437;29;8869;-73
2021/05/26 01:05:30;;;;;;;;;3.00;3.00;;;;;29.42;63.72;98609.09;4917257;29;9573;-72
2021/05/26 01:08:11;;;;;;;;;2.25;2.25;;;;;29.53;63.82;98621.47;4914283;29;8880;-73
2021/05/26 01:10:41;;;;;;;;;4.00;4.00;;;;;29.57;63.97;98615.25;4915562;29;8866;-74
2021/05/26 01:13:11;;;;;;;;;3.75;3.75;;;;;29.59;63.66;98621.06;4916286;29;9593;-73
2021/05/26 01:15:40;;;;;;;;;4.00;4.00;;;;;29.60;63.79;98630.75;4915647;29;8957;-73
2021/05/26 01:18:29;;;;;;;;;3.75;3.75;;;;;29.61;63.89;98633.06;4915519;29;8885;-73
2021/05/26 01:21:01;;;;;;;;;4.75;4.75;;;;;29.64;63.90;98632.28;4915629;29;8878;-72
2021/05/26 01:23:30;;;;;;;;;5.50;5.50;;;;;29.67;63.85;98628.78;4915943;29;9646;-72
2021/05/26 01:26:00;;;;;;;;;3.25;3.25;;;;;29.68;63.58;98622.16;4915685;29;8855;-73
2021/05/26 01:28:31;;;;;;;;;5.25;5.25;;;;;29.75;63.38;98629.50;4915612;29;8871;-73
2021/05/26 01:31:01;;;;;;;;;4.00;4.00;;;;;29.69;63.54;98628.38;4915030;29;8850;-74
2021/05/26 01:33:30;;;;;;;;;5.50;5.50;;;;;29.81;63.22;98647.72;4915378;29;9639;-73
2021/05/26 01:35:59;;;;;;;;;3.40;3.40;;;;;29.77;63.24;98633.38;4915717;29;8850;-73
2021/05/26 01:38:29;;;;;;;;;3.75;3.75;;;;;29.83;62.97;98647.34;4913508;29;8859;-72
2021/05/26 01:41:00;;;;;;;;;4.50;4.50;;;;;29.71;62.39;98624.09;4914707;29;8985;-73
2021/05/26 01:43:30;;;;;;;;;3.25;3.00;;;;;29.91;62.70;98653.47;4914899;29;8962;-74
2021/05/26 01:46:01;;;;;;;;;5.75;5.75;;;;;29.91;62.69;98654.25;4914834;29;8926;-73
2021/05/26 01:48:33;;;;;;;;;4.75;4.75;;;;;29.96;62.26;98648.38;4913900;29;8855;-74
2021/05/26 01:51:02;;;;;;;;;3.40;3.40;;;;;29.96;62.10;98653.81;4914447;29;9013;-73
2021/05/26 01:53:32;;;;;;;;;3.25;3.25;;;;;29.88;61.72;98646.13;4915157;29;8854;-73
2021/05/26 01:56:01;;;;;;;;;0.60;0.60;;;;;29.83;61.80;98650.81;4915202;29;8871;-73
2021/05/26 01:58:29;;;;;;;;;3.80;3.80;;;;;29.94;62.15;98672.50;4914980;29;8859;-73
2021/05/26 02:00:58;;;;;;;;;4.00;4.00;;;;;29.93;62.56;98664.72;4914279;29;8863;-74
2021/05/26 02:03:27;;;;;;;;;3.80;3.80;;;;;29.96;62.41;98678.31;4914815;29;8883;-73
2021/05/26 02:05:56;;;;;;;;;4.20;4.20;;;;;29.94;61.87;98674.44;4913911;29;8953;-72
2021/05/26 02:08:25;;;;;;;;;3.60;3.60;;;;;30.02;61.79;98679.47;4914877;29;8881;-73
2021/05/26 02:13:35;;;;;;;;;2.60;2.60;;;;;30.06;61.82;98682.16;4914472;29;8875;-75
2021/05/26 02:16:04;;;;;;;;;4.00;4.00;;;;;30.08;62.05;98685.25;4913349;29;8855;-74
2021/05/26 02:18:33;;;;;;;;;3.40;3.40;;;;;29.88;61.96;98654.31;4913857;29;8875;-75
2021/05/26 02:21:02;;;;;;;;;4.75;4.25;;;;;30.12;60.90;98686.00;4913534;29;8859;-74
2021/05/26 02:23:31;;;;;;;;;3.75;3.75;;;;;30.14;61.66;98689.09;4908699;29;8865;-73
2021/05/26 02:26:00;;;;;;;;;2.25;2.25;;;;;30.10;61.45;98688.34;4903240;29;8861;-72
2021/05/26 02:28:28;;;;;;;;;4.75;4.75;;;;;30.16;61.62;98684.03;4904629;29;9604;-72
2021/05/26 02:30:57;;;;;;;;;3.80;3.80;;;;;30.20;61.57;98692.97;4897365;29;9642;-73
2021/05/26 02:33:26;;;;;;;;;3.00;3.00;;;;;30.24;61.37;98695.66;4917177;29;8847;-72
2021/05/26 02:35:54;;;;;;;;;2.00;2.00;;;;;30.23;61.58;98691.38;4907114;29;8885;-71
2021/05/26 02:38:24;;;;;;;;;4.00;4.00;;;;;30.34;60.81;98697.53;4905297;29;8937;-71
2021/05/26 02:40:52;;;;;;;;;3.25;3.25;;;;;30.40;60.93;98710.31;4904319;29;8952;-72
2021/05/26 02:43:21;;;;;;;;;2.40;2.40;;;;;30.41;60.72;98692.81;4904979;29;8866;-73
2021/05/26 02:45:50;;;;;;;;;3.00;3.00;;;;;30.55;59.75;98705.53;4904549;29;8884;-72
2021/05/26 02:48:19;;;;;;;;;5.00;5.00;;;;;30.59;60.89;98692.69;4912322;29;8863;-73
2021/05/26 02:50:48;;;;;;;;;3.00;3.00;;;;;30.57;60.43;98686.06;4917955;29;8909;-73
2021/05/26 02:53:17;;;;;;;;;3.20;3.20;;;;;30.58;60.36;98688.44;4918912;29;8914;-73
2021/05/26 02:55:46;;;;;;;;;4.20;4.20;;;;;30.63;60.13;98692.66;4918833;29;8882;-72
2021/05/26 02:58:15;;;;;;;;;3.00;3.00;;;;;30.64;60.34;98695.00;4918792;29;9723;-73
2021/05/26 03:00:44;;;;;;;;;3.80;3.80;;;;;30.63;59.98;98689.94;4919143;29;8901;-72
2021/05/26 03:03:12;;;;;;;;;3.00;3.00;;;;;30.61;59.24;98675.97;4919020;29;8858;-73
2021/05/26 03:05:41;;;;;;;;;3.00;3.00;;;;;30.67;58.91;98687.97;4914925;29;8902;-74
2021/05/26 03:08:11;;;;;;;;;1.60;1.60;;;;;30.72;59.89;98692.97;4909329;29;8858;-73
2021/05/26 03:10:39;;;;;;;;;1.80;1.80;;;;;30.66;59.97;98676.31;4907122;29;8886;-73
2021/05/26 03:13:08;;;;;;;;;2.00;2.00;;;;;30.69;60.51;98677.44;4906168;29;8908;-75
2021/05/26 03:15:37;;;;;;;;;1.00;1.00;;;;;30.69;59.41;98667.34;4906431;29;8881;-75
2021/05/26 03:18:06;;;;;;;;;3.80;3.80;;;;;30.77;59.08;98673.50;4908055;29;8870;-71
2021/05/26 03:20:35;;;;;;;;;2.80;2.80;;;;;30.78;58.81;98666.88;4908920;29;8859;-71
2021/05/26 03:23:04;;;;;;;;;3.40;3.40;;;;;30.76;59.07;98656.38;4905482;29;8904;-71
2021/05/26 03:25:33;;;;;;;;;2.80;2.80;;;;;30.91;58.74;98670.63;4905202;29;8863;-71
2021/05/26 03:28:02;;;;;;;;;2.40;2.40;;;;;30.91;57.74;98657.00;4906264;29;8873;-70
2021/05/26 03:30:31;;;;;;;;;3.60;3.60;;;;;31.05;58.21;98662.31;4906553;29;8925;-71
2021/05/26 03:33:03;;;;;;;;;2.00;2.00;;;;;31.05;57.85;98651.41;4906032;29;8857;-72
2021/05/26 03:35:33;;;;;;;;;1.60;1.60;;;;;31.12;59.36;98653.28;4906510;29;8981;-71
2021/05/26 03:38:02;;;;;;;;;2.60;2.60;;;;;31.09;58.83;98637.75;4906823;29;8853;-72
2021/05/26 03:40:31;;;;;;;;;2.00;2.00;;;;;31.16;55.74;98637.69;4907109;29;8879;-72
2021/05/26 03:43:01;;;;;;;;;2.00;2.00;;;;;31.29;57.73;98643.38;4906736;29;8857;-74
2021/05/26 03:45:31;;;;;;;;;2.00;2.00;;;;;31.32;56.75;98632.41;4906168;29;8855;-72
2021/05/26 03:48:00;;;;;;;;;3.20;3.20;;;;;31.41;57.21;98640.88;4908486;29;8916;-73
2021/05/26 03:50:29;;;;;;;;;3.20;2.00;;;;;31.46;57.28;98637.69;4907325;29;8875;-70
2021/05/26 03:52:58;;;;;;;;;1.40;1.40;;;;;31.51;57.60;98639.19;4906034;29;8954;-73
2021/05/26 03:55:28;;;;;;;;;2.40;2.40;;;;;31.61;56.73;98641.00;4907710;29;9005;-70
2021/05/26 03:57:57;;;;;;;;;3.00;3.00;;;;;31.69;57.38;98653.41;4905650;29;8921;-71
2021/05/26 04:00:26;;;;;;;;;1.60;1.60;;;;;31.76;55.81;98653.31;4905878;29;8922;-71
2021/05/26 04:02:55;;;;;;;;;1.80;1.80;;;;;31.77;56.09;98641.22;4907562;29;8823;-74
2021/05/26 04:05:24;;;;;;;;;1.60;1.60;;;;;31.89;56.73;98650.03;4905419;29;8861;-73
2021/05/26 04:07:53;;;;;;;;;3.00;2.00;;;;;31.94;56.65;98638.66;4908695;29;8893;-73
2021/05/26 04:10:22;;;;;;;;;2.00;2.00;;;;;31.99;55.85;98654.56;4913622;29;8854;-74
2021/05/26 04:12:50;;;;;;;;;1.80;1.80;;;;;31.98;54.04;98636.63;4912713;29;8871;-73
2021/05/26 04:15:19;;;;;;;;;1.60;1.60;;;;;32.00;55.32;98623.34;4913534;29;8882;-74
2021/05/26 04:17:48;;;;;;;;;0.80;0.80;;;;;32.18;53.99;98634.00;4913231;29;8867;-71
2021/05/26 04:20:17;;;;;;;;;1.00;1.00;;;;;32.21;54.32;98619.53;4912992;29;8855;-73
2021/05/26 04:22:46;;;;;;;;;2.00;2.00;;;;;32.33;55.86;98617.00;4912150;29;8941;-72
2021/05/26 04:25:15;;;;;;;;;2.20;2.20;;;;;32.41;54.44;98618.44;4913029;29;8866;-71
2021/05/26 04:27:45;;;;;;;;;2.00;2.00;;;;;32.50;54.10;98625.31;4911057;29;8954;-70
2021/05/26 04:30:15;;;;;;;;;1.40;1.40;;;;;32.57;53.77;98615.00;4906640;29;8865;-72
2021/05/26 04:32:43;;;;;;;;;1.60;1.60;;;;;32.53;54.89;98595.19;4905152;29;8881;-71
2021/05/26 04:35:15;;;;;;;;;3.00;3.00;;;;;32.70;55.05;98599.56;4904123;29;9005;-70
2021/05/26 04:37:43;;;;;;;;;0.80;0.80;;;;;32.80;54.42;98595.13;4905170;29;8942;-71
2021/05/26 04:40:12;;;;;;;;;1.40;1.40;;;;;32.91;53.41;98603.88;4906198;29;8975;-72
2021/05/26 04:42:42;;;;;;;;;1.80;1.80;;;;;32.87;53.80;98592.25;4903792;29;8960;-70
2021/05/26 04:45:12;;;;;;;;;0.80;0.80;;;;;32.96;54.34;98592.47;4905242;29;8875;-72
2021/05/26 04:47:40;;;;;;;;;1.80;1.80;;;;;32.97;53.18;98590.50;4905872;29;8947;-72
2021/05/26 04:50:32;;;;;;;;;1.40;1.40;;;;;32.84;53.03;98573.19;4907516;29;8803;-73
2021/05/26 04:53:05;;;;;;;;;1.20;1.20;;;;;32.94;54.57;98588.59;4919444;29;8977;-72
2021/05/26 04:55:34;;;;;;;;;1.80;1.80;;;;;32.75;53.35;98560.81;4912749;29;8859;-71
2021/05/26 04:58:05;;;;;;;;;2.00;2.00;;;;;32.88;52.89;98587.56;4911011;29;8970;-73
2021/05/26 05:00:35;;;;;;;;;1.00;1.00;;;;;32.86;55.03;98587.19;4912394;29;8909;-72
2021/05/26 05:03:04;;;;;;;;;1.00;1.00;;;;;32.83;51.89;98588.03;4908480;29;8866;-71
2021/05/26 05:05:33;;;;;;;;;1.80;1.80;;;;;32.71;54.00;98564.81;4909902;29;8843;-72
2021/05/26 05:08:05;;;;;;;;;1.80;1.80;;;;;32.80;54.47;98573.25;4901079;29;8880;-72
2021/05/26 05:10:34;;;;;;;;;1.80;1.80;;;;;32.87;52.80;98570.38;4903264;29;8870;-71
2021/05/26 05:13:03;;;;;;;;;1.60;1.60;;;;;32.81;53.78;98557.63;4909563;29;8937;-71
2021/05/26 05:15:32;;;;;;;;;1.00;1.00;;;;;32.94;52.52;98564.78;4911209;29;8867;-71
2021/05/26 05:18:05;;;;;;;;;2.00;2.00;;;;;32.87;54.29;98537.59;4908529;29;8855;-73
2021/05/26 05:20:34;;;;;;;;;2.00;2.00;;;;;33.08;54.08;98550.06;4906733;29;8942;-71
2021/05/26 05:23:03;;;;;;;;;2.00;2.00;;;;;33.22;53.15;98547.03;4912253;29;8874;-73
2021/05/26 05:25:32;;;;;;;;;2.20;2.20;;;;;33.27;53.80;98535.59;4911008;29;8942;-73
2021/05/26 05:28:01;;;;;;;;;2.80;1.80;;;;;33.41;52.58;98545.47;4910214;29;8958;-72
2021/05/26 05:30:30;;;;;;;;;2.00;2.00;;;;;33.51;53.30;98538.22;4911215;29;8863;-74
2021/05/26 05:32:59;;;;;;;;;0.60;0.60;;;;;33.67;52.71;98541.75;4911081;29;8907;-71
2021/05/26 05:35:28;;;;;;;;;2.00;2.00;;;;;33.78;51.92;98527.06;4912681;29;8855;-71
2021/05/26 05:37:58;;;;;;;;;4.00;4.00;;;;;33.82;52.86;98522.25;4905170;29;8890;-72
2021/05/26 05:40:50;;;;;;;;;3.00;3.00;;;;;33.88;51.27;98512.34;4901631;29;8853;-72
2021/05/26 05:43:41;;;;;;;;;1.00;1.00;;;;;33.95;49.66;98503.97;4903023;29;8964;-74
2021/05/26 05:46:10;;;;;;;;;4.60;4.60;;;;;33.91;51.27;98500.53;4902314;29;9049;-72
2021/05/26 05:48:38;;;;;;;;;3.40;3.40;;;;;34.06;52.02;98492.75;4902701;29;8893;-72
2021/05/26 05:51:07;;;;;;;;;3.40;3.40;;;;;34.16;51.88;98484.25;4910950;29;8891;-70
2021/05/26 05:53:36;;;;;;;;;2.40;2.40;;;;;34.11;52.74;98454.66;4909342;29;8871;-72
2021/05/26 05:56:06;;;;;;;;;2.00;2.00;;;;;34.18;50.68;98450.97;4912551;29;8897;-73
2021/05/26 05:58:36;;;;;;;;;5.80;5.00;;;;;34.08;51.40;98427.38;4913229;29;8866;-71
2021/05/26 06:01:04;;;;;;;;;2.60;2.60;;;;;34.33;51.64;98455.66;4914042;29;9611;-72
2021/05/26 06:03:33;;;;;;;;;2.60;2.60;;;;;34.33;49.69;98441.97;4914671;29;8871;-71
2021/05/26 06:06:02;;;;;;;;;3.20;3.20;;;;;34.29;53.70;98449.47;4914358;29;8895;-70
2021/05/26 06:08:31;;;;;;;;;2.60;2.60;;;;;34.15;53.38;98441.66;4915200;29;8941;-71
2021/05/26 06:10:59;;;;;;;;;3.00;3.00;;;;;33.98;52.89;98442.88;4914184;29;8906;-70
2021/05/26 06:13:33;;;;;;;;;3.40;3.40;;;;;33.80;53.63;98435.16;4913703;29;8867;-70
2021/05/26 06:16:01;;;;;;;;;2.00;2.00;;;;;33.70;53.21;98433.44;4915734;29;8866;-71
2021/05/26 06:18:30;;;;;;;;;3.80;3.80;;;;;33.62;51.58;98430.13;4914643;29;8866;-72
2021/05/26 06:20:59;;;;;;;;;3.00;3.00;;;;;33.59;51.48;98420.03;4915045;29;8953;-72
2021/05/26 06:23:28;;;;;;;;;1.40;1.40;;;;;33.57;51.70;98403.28;4914826;29;8897;-71
2021/05/26 06:25:57;;;;;;;;;2.00;2.00;;;;;33.62;52.45;98405.50;4914144;29;8863;-71
2021/05/26 06:28:26;;;;;;;;;1.60;1.60;;;;;33.70;52.40;98408.81;4914684;29;8859;-71
2021/05/26 06:30:57;;;;;;;;;3.80;3.80;;;;;33.75;51.94;98408.31;4914689;29;8910;-71
2021/05/26 06:33:49;;;;;;;;;3.00;3.00;;;;;33.65;53.84;98388.22;4914855;29;9565;-71
2021/05/26 06:36:18;;;;;;;;;2.80;2.80;;;;;33.83;53.66;98406.91;4915151;29;8873;-71
2021/05/26 06:38:47;;;;;;;;;2.00;2.00;;;;;33.76;51.88;98392.66;4914866;29;8866;-71
2021/05/26 06:41:16;;;;;;;;;3.20;3.20;;;;;33.66;51.24;98387.03;4915491;29;8889;-71
2021/05/26 06:43:45;;;;;;;;;2.00;2.00;;;;;33.64;53.36;98383.19;4915782;29;8863;-71
2021/05/26 06:46:13;;;;;;;;;3.00;3.00;;;;;33.52;53.92;98368.25;4914973;29;8879;-72
2021/05/26 06:49:06;;;;;;;;;3.40;3.40;;;;;33.41;53.35;98369.72;4912118;29;8839;-75
2021/05/26 06:51:35;;;;;;;;;3.00;3.00;;;;;33.18;53.49;98351.50;4912765;29;8965;-73
2021/05/26 06:54:04;;;;;;;;;3.80;3.80;;;;;33.20;53.73;98358.06;4914279;29;9452;-72
2021/05/26 06:56:33;;;;;;;;;2.80;2.80;;;;;33.14;54.49;98351.59;4914538;29;8970;-72
2021/05/26 06:59:02;;;;;;;;;3.20;3.20;;;;;33.01;54.64;98348.00;4913587;29;8854;-76
2021/05/26 07:01:30;;;;;;;;;2.40;2.40;;;;;32.98;54.55;98355.06;4913141;29;8910;-72
2021/05/26 07:04:00;;;;;;;;;2.80;2.80;;;;;32.89;53.87;98352.16;4913100;29;8886;-72
2021/05/26 07:06:28;;;;;;;;;3.00;3.00;;;;;32.82;54.00;98337.91;4915090;29;8870;-72
2021/05/26 07:08:57;;;;;;;;;2.20;2.20;;;;;32.80;54.65;98340.28;4915429;29;8926;-72
2021/05/26 07:11:26;;;;;;;;;1.60;1.60;;;;;32.73;54.64;98324.81;4915223;29;8850;-72
2021/05/26 07:13:54;;;;;;;;;3.20;3.20;;;;;32.70;54.54;98342.03;4915696;29;8863;-71
2021/05/26 07:16:27;;;;;;;;;2.60;2.60;;;;;32.58;54.93;98335.28;4915296;29;8858;-71
2021/05/26 07:18:59;;;;;;;;;2.60;2.60;;;;;32.54;54.85;98336.53;4915356;29;8859;-72
2021/05/26 07:21:28;;;;;;;;;2.00;2.00;;;;;32.41;55.13;98350.88;4915724;29;8858;-72
2021/05/26 07:23:57;;;;;;;;;2.00;2.00;;;;;32.34;55.35;98317.50;4915485;29;8851;-71
2021/05/26 07:26:26;;;;;;;;;3.40;3.20;;;;;32.21;55.90;98330.22;4915464;29;8855;-72
2021/05/26 07:28:55;;;;;;;;;2.60;2.60;;;;;31.92;56.55;98319.09;4915340;29;8876;-72
2021/05/26 07:31:24;;;;;;;;;2.40;2.40;;;;;31.74;56.63;98333.84;4915376;29;8859;-72
2021/05/26 07:33:53;;;;;;;;;3.60;3.60;;;;;31.51;60.30;98333.09;4915421;29;8871;-71
2021/05/26 07:36:22;;;;;;;;;2.00;2.00;;;;;31.24;57.73;98324.97;4916791;29;8854;-72
2021/05/26 07:38:50;;;;;;;;;3.00;3.00;;;;;30.94;58.40;98313.00;4919014;29;8885;-71
2021/05/26 07:41:19;;;;;;;;;2.20;2.20;;;;;30.73;59.41;98303.19;4919044;29;8847;-72
2021/05/26 07:43:49;;;;;;;;;2.00;2.00;;;;;30.57;59.15;98302.25;4918794;29;8855;-72
2021/05/26 07:46:18;;;;;;;;;2.00;2.00;;;;;30.48;60.56;98295.38;4917691;29;8982;-72
2021/05/26 07:48:48;;;;;;;;;2.20;2.20;;;;;30.37;61.64;98293.97;4918716;29;9628;-72
2021/05/26 07:51:20;;;;;;;;;2.80;2.80;;;;;30.28;61.88;98290.97;4918845;29;8859;-72
2021/05/26 07:53:49;;;;;;;;;1.40;1.40;;;;;30.32;61.98;98300.63;4918709;29;8882;-72
2021/05/26 07:56:18;;;;;;;;;2.20;2.20;;;;;30.35;61.78;98299.81;4918740;29;8985;-72
2021/05/26 07:58:47;;;;;;;;;2.60;2.60;;;;;30.36;61.96;98293.19;4918802;29;8870;-72
2021/05/26 08:01:16;;;;;;;;;2.00;2.00;;;;;30.43;62.47;98286.88;4918877;29;8933;-72
2021/05/26 08:03:44;;;;;;;;;1.40;1.40;;;;;30.49;60.87;98296.91;4918549;29;8855;-72
2021/05/26 08:06:13;;;;;;;;;2.80;2.80;;;;;30.53;60.84;98280.53;4918505;29;8865;-72
2021/05/26 08:08:42;;;;;;;;;1.80;1.80;;;;;30.52;60.23;98282.47;4918358;29;8870;-72
2021/05/26 08:11:34;;;;;;;;;1.00;1.00;;;;;30.63;60.13;98276.91;4918537;29;8802;-72
2021/05/26 08:14:03;;;;;;;;;1.40;1.40;;;;;30.62;61.64;98261.75;4918272;29;8858;-72
2021/05/26 08:16:32;;;;;;;;;1.00;1.00;;;;;30.60;59.03;98247.00;4918248;29;8870;-71
2021/05/26 08:19:01;;;;;;;;;0.00;0.00;;;;;30.60;58.52;98249.72;4918319;29;8862;-71
2021/05/26 08:21:30;;;;;;;;;1.20;1.20;;;;;30.54;58.66;98257.56;4918118;29;8948;-71
2021/05/26 08:23:59;;;;;;;;;1.00;1.00;;;;;30.45;58.83;98260.03;4918215;29;8946;-71
2021/05/26 08:26:27;;;;;;;;;1.00;1.00;;;;;30.39;58.35;98267.88;4918140;29;8867;-72
2021/05/26 08:28:56;;;;;;;;;0.00;0.00;;;;;30.23;58.16;98248.66;4918093;29;8943;-71
2021/05/26 08:31:24;;;;;;;;;1.00;1.00;;;;;30.28;57.88;98256.38;4918036;29;8897;-72
2021/05/26 08:33:55;;;;;;;;;1.60;1.60;;;;;30.26;59.03;98261.47;4918012;29;8874;-72
2021/05/26 08:36:23;;;;;;;;;0.80;0.80;;;;;30.26;58.48;98253.28;4918251;29;9099;-72
2021/05/26 08:38:52;;;;;;;;;1.60;1.60;;;;;30.26;58.26;98250.56;4917843;29;8850;-72
2021/05/26 08:41:23;;;;;;;;;0.80;0.80;;;;;30.24;57.54;98246.72;4918802;29;8883;-72
2021/05/26 08:43:52;;;;;;;;;2.40;2.40;;;;;30.28;57.37;98250.94;4918030;29;8847;-72
2021/05/26 08:46:23;;;;;;;;;1.80;1.80;;;;;30.19;57.19;98235.13;4917815;29;8886;-72
2021/05/26 08:48:53;;;;;;;;;1.00;1.00;;;;;30.36;57.76;98246.16;4916586;29;8846;-72
2021/05/26 08:51:23;;;;;;;;;1.00;1.00;;;;;30.41;58.51;98243.75;4917713;29;8863;-72
2021/05/26 08:53:52;;;;;;;;;0.80;0.80;;;;;30.46;58.69;98237.84;4917836;29;8858;-72
2021/05/26 08:56:21;;;;;;;;;0.80;0.80;;;;;30.47;58.22;98225.00;4917497;29;8901;-72
2021/05/26 08:58:50;;;;;;;;;1.00;1.00;;;;;30.55;59.49;98231.13;4917598;29;9581;-71
2021/05/26 09:01:20;;;;;;;;;2.60;2.60;;;;;30.62;59.42;98231.03;4917483;29;8859;-72
2021/05/26 09:03:51;;;;;;;;;1.60;1.60;;;;;30.64;58.67;98218.56;4917469;29;8867;-72
2021/05/26 09:06:20;;;;;;;;;1.80;1.80;;;;;30.83;58.41;98233.41;4916260;29;8855;-72
2021/05/26 09:09:12;;;;;;;;;2.20;2.20;;;;;30.99;59.97;98241.72;4917849;29;8827;-72
2021/05/26 09:11:43;;;;;;;;;1.60;1.60;;;;;31.06;60.44;98243.53;4917457;29;8866;-72
2021/05/26 09:14:13;;;;;;;;;1.20;1.20;;;;;31.08;58.89;98224.81;4917279;29;8902;-72
2021/05/26 09:16:43;;;;;;;;;2.00;2.00;;;;;31.21;58.39;98230.44;4915907;29;8893;-71
2021/05/26 09:19:12;;;;;;;;;1.60;1.60;;;;;31.20;57.98;98216.06;4917185;29;8887;-72
2021/05/26 09:21:43;;;;;;;;;1.00;1.00;;;;;31.34;58.33;98234.09;4917154;29;8902;-71
2021/05/26 09:25:08;;;;;;;;;2.00;2.00;;;;;31.30;58.18;98236.88;4923177;29;8672;-72
2021/05/26 09:27:37;;;;;;;;;1.80;1.80;;;;;31.19;58.67;98224.66;4917025;29;8867;-72
2021/05/26 09:30:06;;;;;;;;;1.40;1.40;;;;;31.21;57.93;98233.94;4916980;29;8866;-72
2021/05/26 09:32:36;;;;;;;;;2.40;2.40;;;;;31.20;57.80;98239.84;4917103;29;8969;-72
2021/05/26 09:35:07;;;;;;;;;1.80;1.80;;;;;31.16;57.80;98225.50;4916868;29;8878;-72
2021/05/26 09:37:37;;;;;;;;;5.40;3.60;;;;;31.16;57.98;98225.50;4916855;29;9850;-72
2021/05/26 09:40:13;;;;;;;;;3.00;3.00;;;;;31.14;58.32;98236.81;4916836;29;8847;-72
2021/05/26 09:42:45;;;;;;;;;4.40;4.40;;;;;31.16;58.46;98248.06;4916739;29;8933;-71
2021/05/26 09:45:27;;;;;;;;;1.80;1.80;;;;;31.15;58.69;98251.97;4916618;29;8892;-72
2021/05/26 09:48:15;;;;;;;;;2.40;2.40;;;;;31.11;58.79;98257.47;4917281;29;8866;-72
2021/05/26 09:50:44;;;;;;;;;3.80;3.80;;;;;31.12;58.54;98267.16;4916679;29;8866;-71
2021/05/26 09:53:19;;;;;;;;;2.00;2.00;;;;;31.11;58.23;98273.81;4916566;29;8940;-72
2021/05/26 09:55:49;;;;;;;;;2.00;2.00;;;;;31.09;58.51;98264.50;4916563;29;8989;-72
2021/05/26 09:58:21;;;;;;;;;3.00;3.00;;;;;31.13;58.37;98276.13;4916230;29;8961;-72
2021/05/26 10:00:50;;;;;;;;;3.00;3.00;;;;;31.12;58.85;98272.63;4916786;29;9631;-72
2021/05/26 10:03:19;;;;;;;;;3.40;3.40;;;;;31.05;58.74;98270.00;4916408;29;8886;-72
2021/05/26 10:05:48;;;;;;;;;3.80;3.80;;;;;30.96;58.59;98267.06;4916605;29;8859;-72
2021/05/26 10:08:18;;;;;;;;;5.80;5.80;;;;;31.04;58.77;98286.78;4916570;29;8874;-72
2021/05/26 10:10:50;;;;;;;;;4.00;4.00;;;;;30.98;58.70;98286.47;4916341;29;8863;-72
2021/05/26 10:13:24;;;;;;;;;4.00;4.00;;;;;31.06;58.89;98304.25;4916272;29;9655;-73
2021/05/26 10:15:54;;;;;;;;;3.00;3.00;;;;;31.06;58.78;98308.91;4916157;29;8854;-72
2021/05/26 10:18:25;;;;;;;;;3.00;3.00;;;;;31.08;59.49;98314.72;4916197;29;8875;-72
2021/05/26 10:20:54;;;;;;;;;3.40;3.40;;;;;31.06;58.29;98322.53;4916186;29;8863;-72
2021/05/26 10:23:24;;;;;;;;;4.40;4.40;;;;;30.98;58.59;98323.84;4916097;29;8946;-71
2021/05/26 10:25:54;;;;;;;;;4.80;4.80;;;;;30.84;58.52;98316.66;4916103;29;8863;-72
2021/05/26 10:28:31;;;;;;;;;3.40;3.40;;;;;30.84;58.80;98322.09;4916251;29;8855;-72
2021/05/26 10:31:02;;;;;;;;;3.40;3.40;;;;;30.76;59.04;98337.00;4916038;29;8847;-72
2021/05/26 10:33:51;;;;;;;;;4.20;4.20;;;;;30.70;59.20;98335.94;4914815;29;8874;-72
2021/05/26 10:36:21;;;;;;;;;5.60;5.60;;;;;30.64;59.16;98323.94;4916510;29;9684;-72
2021/05/26 10:39:01;;;;;;;;;5.00;5.00;;;;;30.55;58.77;98321.72;4915970;29;8882;-72
2021/05/26 10:41:50;;;;;;;;;5.20;5.20;;;;;30.54;58.98;98313.94;4915870;29;8863;-72
2021/05/26 10:44:19;;;;;;;;;4.00;4.00;;;;;30.47;59.01;98312.88;4915823;29;9597;-72
2021/05/26 10:46:50;;;;;;;;;3.80;3.80;;;;;30.43;59.08;98309.44;4915814;29;8862;-72
2021/05/26 10:49:18;;;;;;;;;3.40;3.40;;;;;30.38;59.25;98299.00;4916001;29;8854;-71
2021/05/26 10:51:57;;;;;;;;;2.60;2.60;;;;;30.37;59.03;98292.00;4915814;29;8870;-72
2021/05/26 10:54:38;;;;;;;;;2.80;2.80;;;;;30.37;59.40;98297.47;4915737;29;8936;-72
2021/05/26 10:57:08;;;;;;;;;3.60;3.60;;;;;30.37;58.99;98292.00;4915745;29;8859;-72
2021/05/26 10:59:38;;;;;;;;;3.00;3.00;;;;;30.35;59.04;98291.66;4915720;29;8906;-72
2021/05/26 11:02:10;;;;;;;;;2.80;2.80;;;;;30.31;59.13;98288.22;4915629;29;8855;-72
2021/05/26 11:04:41;;;;;;;;;2.60;2.60;;;;;30.31;58.74;98285.50;4915419;29;8866;-72
2021/05/26 11:07:32;;;;;;;;;2.80;2.80;;;;;30.39;58.82;98286.94;4915596;29;8863;-72
2021/05/26 11:10:06;;;;;;;;;3.00;3.00;;;;;30.33;58.93;98274.97;4915624;29;9057;-72
2021/05/26 11:13:00;;;;;;;;;4.60;4.60;;;;;30.42;59.29;98291.56;4919032;29;9056;-72
2021/05/26 11:15:48;;;;;;;;;2.40;2.40;;;;;30.43;59.17;98278.72;4919296;29;8870;-72
2021/05/26 11:18:29;;;;;;;;;5.00;5.00;;;;;30.36;59.51;98276.09;4919114;29;9660;-72
2021/05/26 11:20:58;;;;;;;;;3.80;3.80;;;;;30.38;58.90;98279.19;4919260;29;8851;-72
2021/05/26 11:23:27;;;;;;;;;4.20;4.20;;;;;30.45;59.13;98277.13;4919192;29;8889;-72
2021/05/26 11:26:00;;;;;;;;;5.60;5.60;;;;;30.45;59.04;98281.81;4919180;29;8851;-72
2021/05/26 11:28:32;;;;;;;;;6.00;6.00;;;;;30.42;59.05;98275.22;4919163;29;8897;-72
2021/05/26 11:31:11;;;;;;;;;3.40;3.40;;;;;30.35;58.95;98278.03;4919151;29;8972;-72
2021/05/26 11:33:55;;;;;;;;;4.60;4.60;;;;;30.47;59.26;98301.97;4919118;29;8957;-72
2021/05/26 11:36:42;;;;;;;;;4.60;4.60;;;;;30.47;59.28;98312.09;4919208;29;8882;-72
2021/05/26 11:39:27;;;;;;;;;5.20;5.20;;;;;30.44;59.35;98324.56;4918976;29;8859;-72
2021/05/26 11:42:12;;;;;;;;;6.50;6.50;;;;;30.47;59.16;98347.47;4918973;29;9005;-72
2021/05/26 11:44:58;;;;;;;;;6.50;6.50;;;;;30.45;59.43;98353.34;4918834;29;8863;-72
2021/05/26 11:47:39;;;;;;;;;8.75;8.75;;;;;30.42;59.72;98346.00;4918840;29;8862;-72
2021/05/26 11:50:14;;;;;;;;;6.25;6.25;;;;;30.41;59.62;98349.88;4918808;29;9648;-72
2021/05/26 11:52:47;;;;;;;;;6.00;6.00;;;;;30.34;60.41;98336.38;4918731;29;8851;-72
2021/05/26 11:55:20;;;;;;;;;6.00;6.00;;;;;30.33;59.65;98347.66;4918755;29;8859;-72
2021/05/26 11:58:12;;;;;;;;;7.50;7.50;;;;;30.29;60.18;98334.09;4918976;29;8834;-72
2021/05/26 12:00:42;;;;;;;;;5.20;5.20;;;;;30.26;59.99;98334.91;4918819;29;8881;-72
2021/05/26 12:03:16;;;;;;;;;4.80;4.80;;;;;30.26;60.24;98336.88;4918846;29;8987;-71